Flight Track Log - Related Links

Times and Time Zones

All times are in EDT time to prevent confusion due to time zone crossing. See the BAW73 flight status page for this flight to view local times or setup timezone preferences in your user account.

Time Position Orientation Groundspeed Altitude Reporting Facility
EDT Latitude Longitude Course Direction KTS MPH feet Rate Location/Type
Wed 05:10:11 AM 51.4774 -0.5499 299° West 208 239 1,700  Level FlightAware ADS-B
Wed 05:10:22 AM 51.4831 -0.5669 298° West 225 259 2,100 2,222 Climbing FlightAware ADS-B
Wed 05:10:38 AM 51.4907 -0.5908 297° West 234 269 2,700 2,250 Climbing FlightAware ADS-B
Wed 05:10:54 AM 51.4986 -0.6152 297° West 242 278 3,300 2,400 Climbing FlightAware ADS-B
Wed 05:11:03 AM 51.5035 -0.6297 299° West 243 280 3,700 2,769 Climbing FlightAware ADS-B
Wed 05:11:07 AM 51.5067 -0.6369 306° West 247 284 3,900 3,000 Climbing FlightAware ADS-B
Wed 05:11:11 AM 51.5093 -0.6416 312° West 251 289 4,100 2,000 Climbing FlightAware ADS-B
Wed 05:11:16 AM 51.5135 -0.6475 319° Northwest 258 297 4,200 1,333 Climbing FlightAware ADS-B
Wed 05:11:20 AM 51.5175 -0.6518 327° Northwest 264 304 4,300 1,500 Climbing FlightAware ADS-B
Wed 05:11:24 AM 51.5220 -0.6552 334° Northwest 269 310 4,400 2,000 Climbing FlightAware ADS-B
Wed 05:11:29 AM 51.5278 -0.6582 342° North 275 316 4,600 3,000 Climbing FlightAware ADS-B
Wed 05:11:32 AM 51.5328 -0.6596 351° North 278 320 4,800 3,000 Climbing FlightAware ADS-B
Wed 05:11:35 AM 51.5367 -0.6599 356° North 281 323 4,900 2,571 Climbing FlightAware ADS-B
Wed 05:11:39 AM 51.5414 -0.6596 North 284 327 5,100 2,250 Climbing FlightAware ADS-B
Wed 05:11:43 AM 51.5458 -0.6587 North 285 328 5,200 1,333 Climbing FlightAware ADS-B
Wed 05:11:48 AM 51.5530 -0.6555 15° North 287 330 5,300 1,200 Climbing FlightAware ADS-B
Wed 05:11:53 AM 51.5588 -0.6513 24° Northeast 288 331 5,400 750 Climbing FlightAware ADS-B
Wed 05:11:56 AM 51.5625 -0.6478 30° Northeast 288 331 5,400 667 Level FlightAware ADS-B
Wed 05:12:02 AM 51.5688 -0.6400 38° Northeast 288 331 5,500 1,091 Climbing FlightAware ADS-B
Wed 05:12:07 AM 51.5738 -0.6322 44° Northeast 290 334 5,600 667 Climbing FlightAware ADS-B
Wed 05:12:11 AM 51.5768 -0.6267 49° Northeast 293 337 5,600  Level FlightAware ADS-B
Wed 05:12:14 AM 51.5793 -0.6215 52° Northeast 295 339 5,600 316 Level FlightAware ADS-B
Wed 05:12:30 AM 51.5913 -0.5928 56° Northeast 293 337 5,700 188 Climbing FlightAware ADS-B
Wed 05:12:46 AM 51.6026 -0.5629 59° Northeast 292 336 5,700  Level FlightAware ADS-B
Wed 05:13:03 AM 51.6146 -0.5314 58° Northeast 293 337 5,700  Level FlightAware ADS-B
Wed 05:13:20 AM 51.6265 -0.4995 59° Northeast 292 336 5,700  Level FlightAware ADS-B
Wed 05:13:36 AM 51.6377 -0.4698 59° Northeast 299 344 5,700  Level FlightAware ADS-B
Wed 05:13:51 AM 51.6492 -0.4395 59° Northeast 311 358 5,700  Level FlightAware ADS-B
Wed 05:14:07 AM 51.6608 -0.4089 58° Northeast 313 360 5,700  Level FlightAware ADS-B
Wed 05:14:22 AM 51.6724 -0.3789 58° Northeast 312 359 5,700  Level FlightAware ADS-B
Wed 05:14:38 AM 51.6845 -0.3471 58° Northeast 313 360 5,700  Level FlightAware ADS-B
Wed 05:14:55 AM 51.6977 -0.3127 58° Northeast 311 358 5,700 182 Level FlightAware ADS-B
Wed 05:15:11 AM 51.7095 -0.2813 59° Northeast 315 362 5,800 1,273 Climbing FlightAware ADS-B
Wed 05:15:28 AM 51.7220 -0.2478 59° Northeast 317 365 6,400 2,400 Climbing FlightAware ADS-B
Wed 05:15:46 AM 51.7357 -0.2098 60° Northeast 319 367 7,200 2,545 Climbing FlightAware ADS-B
Wed 05:16:01 AM 51.7460 -0.1785 62° Northeast 323 372 7,800 2,286 Climbing FlightAware ADS-B
Wed 05:16:07 AM 51.7490 -0.1654 70° East 325 374 8,000 2,250 Climbing FlightAware ADS-B
Wed 05:16:17 AM 51.7534 -0.1427 73° East 326 375 8,400 2,640 Climbing FlightAware ADS-B
Wed 05:16:32 AM 51.7609 -0.1064 71° East 329 379 9,100 2,294 Climbing FlightAware ADS-B
Wed 05:16:51 AM 51.7691 -0.0607 74° East 336 387 9,700 1,925 Climbing FlightAware ADS-B
Wed 05:17:25 AM 51.7814 0.0209 76° East 351 404 10,800 1,938 Climbing FlightAware ADS-B
Wed 05:17:56 AM 51.7934 0.1041 77° East 367 422 11,800 480 Climbing FlightAware ADS-B
Wed 05:18:15 AM 51.8009 0.1563 77° East 350 403 11,200 2,824 Descending FlightAware UK
Wed 05:18:30 AM 51.8064 0.1944 77° East 369 425 13,400 2,600 Climbing FlightAware ADS-B
Wed 05:18:45 AM 51.8124 0.2370 77° East 352 405 12,500 2,600 Descending FlightAware UK
Wed 05:19:00 AM 51.8181 0.2764 77° East 376 433 14,700 2,200 Climbing FlightAware ADS-B
Wed 05:19:15 AM 51.8241 0.3200 77° East 358 412 13,600 2,000 Descending FlightAware UK
Wed 05:19:33 AM 51.8308 0.3666 77° East 388 447 15,800 2,333 Climbing FlightAware ADS-B
Wed 05:19:51 AM 51.8386 0.4217 77° East 368 423 15,000 2,270 Descending FlightAware UK
Wed 05:20:10 AM 51.8462 0.4730 77° East 396 456 17,200 2,167 Climbing FlightAware ADS-B
Wed 05:20:27 AM 51.8535 0.5250 77° East 374 430 16,300 -333 Descending FlightAware UK
Wed 05:20:46 AM 51.8610 0.5782 77° East 378 435 17,000 2,108 Climbing FlightAware UK
Wed 05:21:04 AM 51.8687 0.6314 77° East 380 437 17,600 6,000 Climbing FlightAware UK
Wed 05:21:07 AM 51.8690 0.6300 77° East 407 468 19,100 4,688 Climbing FlightAware ADS-B
Wed 05:21:36 AM 51.8821 0.7255 77° East 399 459 20,100 1,967 Climbing FlightAware ADS-B
Wed 05:22:08 AM 51.8961 0.8266 77° East 425 489 21,100  Climbing FlightAware ADS-B
Wed 05:22:28 AM 51.9044 0.8880 77° East 392 451 20,100 1,455 Descending FlightAware UK
Wed 05:22:41 AM 51.9104 0.9291 77° East 437 503 21,900 1,655 Climbing FlightAware ADS-B
Wed 05:22:57 AM 51.9176 0.9831 77° East 404 465 20,900 2,000 Descending FlightAware UK
Wed 05:23:11 AM 51.9238 1.0266 77° East 442 509 22,900 3,625 Climbing FlightAware ADS-B
Wed 05:23:45 AM 51.9385 1.1347 78° East 449 517 23,800 102 Climbing FlightAware ADS-B
Wed 05:24:10 AM 51.9500 1.2194 78° East 414 476 23,000 1,688 Descending FlightAware UK
Wed 05:24:17 AM 51.9529 1.2406 78° East 457 526 24,700 1,500 Climbing FlightAware ADS-B
Wed 05:24:34 AM 51.9607 1.2991 78° East 418 481 23,600 1,636 Descending FlightAware UK
Wed 05:24:50 AM 51.9682 1.3528 78° East 463 533 25,600 1,571 Climbing FlightAware ADS-B
Wed 05:25:16 AM 51.9803 1.4426 78° East 424 488 24,700 1,500 Descending FlightAware UK
Wed 05:25:22 AM 51.9820 1.4520 78° East 469 540 26,400 9,818 Climbing FlightAware ADS-B
Wed 05:25:27 AM 51.9851 1.4784 79° East 472 543 26,500 -2,500 Climbing FlightAware ADS-B
Wed 05:25:46 AM 51.9940 1.5465 79° East 430 495 25,400 1,500 Descending FlightAware UK
Wed 05:25:59 AM 51.9997 1.5889 79° East 477 549 27,300 1,600 Climbing FlightAware ADS-B
Wed 05:26:16 AM 52.0077 1.6515 79° East 434 499 26,200 1,535 Descending FlightAware UK
Wed 05:26:42 AM 52.0198 1.7413 79° East 487 560 28,400 1,429 Climbing FlightAware ADS-B
Wed 05:26:58 AM 52.0272 1.8005 79° East 440 506 27,200 1,350 Descending FlightAware UK
Wed 05:27:22 AM 52.0384 1.8852 79° East 495 570 29,300 1,286 Climbing FlightAware ADS-B
Wed 05:27:40 AM 52.0470 1.9539 79° East 448 516 28,100 -1,333 Descending FlightAware UK
Wed 05:27:58 AM 52.0557 2.0197 78° East 450 518 28,500 4,667 Climbing FlightAware UK
Wed 05:28:07 AM 52.0580 2.0400 78° East 503 579 30,200 4,552 Climbing FlightAware ADS-B
Wed 05:28:27 AM 52.0691 2.1242 78° East 506 582 30,700 -800 Climbing FlightAware ADS-B
Wed 05:28:52 AM 52.0811 2.2214 78° East 456 525 29,600 1,292 Descending FlightAware UK
Wed 05:29:32 AM 52.0990 2.3640 78° East 515 593 32,100 1,309 Climbing FlightAware ADS-B
Wed 05:29:47 AM 52.1069 2.4268 78° East 468 539 30,800 1,050 Descending FlightAware UK
Wed 05:30:12 AM 52.1150 2.5160 78° East 523 602 32,800 1,125 Climbing FlightAware ADS-B
Wed 05:30:35 AM 52.1194 2.6138 78° East 472 543 31,700 1,067 Descending FlightAware UK
Wed 05:30:57 AM 52.1210 2.6860 78° East 530 610 33,600 2,516 Climbing FlightAware ADS-B
Wed 05:31:37 AM 52.1250 2.8490 88° East 535 616 34,300 1,059 Climbing FlightAware ADS-B
Wed 05:32:22 AM 52.1290 3.0350 88° East 541 623 35,100 -86 Climbing FlightAware ADS-B
Wed 05:32:47 AM 52.1309 3.1436 88° East 484 557 34,200 1,500 Descending FlightAware UK
Wed 05:33:02 AM 52.1320 3.1990 88° East 536 617 36,100 1,400 Climbing FlightAware ADS-B
Wed 05:33:17 AM 52.1331 3.2647 88° East 480 552 34,900 1,350 Descending FlightAware UK
Wed 05:33:42 AM 52.1350 3.3590 88° East 533 613 37,000 2,486 Climbing FlightAware ADS-B
Wed 05:34:27 AM 52.1380 3.5350 88° East 530 610 37,800 -369 Climbing FlightAware ADS-B
Wed 05:34:47 AM 52.1399 3.6239 88° East 478 550 36,600 -1,421 Descending FlightAware UK
Wed 05:35:05 AM 52.1415 3.6950 88° East 476 548 36,900 5,700 Climbing FlightAware UK
Wed 05:35:07 AM 52.1410 3.6920 88° East 526 605 38,500 2,857 Climbing FlightAware ADS-B
Wed 05:35:47 AM 52.1440 3.8480 88° East 527 606 38,900 353 Climbing FlightAware ADS-B
Wed 05:36:32 AM 52.1460 4.0250 89° East 527 606 39,000 -1,400 Climbing FlightAware ADS-B
Wed 05:36:47 AM 52.1471 4.0975 89° East 478 550 37,500 -2,308 Descending FlightAware UK
Wed 05:37:11 AM 52.1487 4.1924 88° East 476 548 37,500 3,000 Level FlightAware UK
Wed 05:37:17 AM 52.1490 4.2060 88° East 525 604 39,000 1,957 Climbing FlightAware ADS-B
Wed 05:37:57 AM 52.1500 4.3620 89° East 524 603 39,000 -1,250 Level FlightAware ADS-B
Wed 05:38:29 AM 52.1523 4.4992 89° East 474 545 37,500  Descending FlightAware UK
Wed 05:38:37 AM 52.1520 4.5210 89° East 523 602 39,000  Climbing FlightAware ADS-B
Wed 05:38:53 AM 52.1530 4.5942 89° East 472 543 37,500 -2,647 Descending FlightAware UK
Wed 05:39:11 AM 52.1538 4.6649 89° East 474 545 37,500 3,750 Level FlightAware UK
Wed 05:39:17 AM 52.1530 4.6790 89° East 523 602 39,000  Climbing FlightAware ADS-B
Wed 05:39:41 AM 52.1549 4.7827 89° East 474 545 37,500  Descending FlightAware UK
Wed 05:40:02 AM 52.1540 4.8560 89° East 525 604 39,000  Climbing FlightAware ADS-B
Wed 05:40:23 AM 52.1555 4.9474 89° East 476 548 37,500 -2,308 Descending FlightAware UK
Wed 05:40:41 AM 52.1560 5.0184 89° East 476 548 37,500 4,737 Level FlightAware UK
Wed 05:40:42 AM 52.1550 5.0080 89° East 524 603 39,000  Climbing FlightAware ADS-B
Wed 05:40:59 AM 52.1563 5.0893 89° East 476 548 37,500 -2,571 Descending FlightAware UK
Wed 05:41:17 AM 52.1569 5.1601 89° East 476 548 37,500 3,913 Level FlightAware UK
Wed 05:41:22 AM 52.1560 5.1650 89° East 523 602 39,000  Climbing FlightAware ADS-B
Wed 05:41:53 AM 52.1555 5.3000 89° East 476 548 37,500  Descending FlightAware UK
Wed 05:42:07 AM 52.1570 5.3340 89° East 522 601 39,000  Climbing FlightAware ADS-B
Wed 05:42:35 AM 52.1554 5.4640 89° East 474 545 37,500  Descending FlightAware UK
Wed 05:42:47 AM 52.1570 5.4870 89° East 522 601 39,000  Climbing FlightAware ADS-B
Wed 05:43:05 AM 52.1552 5.5812 89° East 474 545 37,500 -2,500 Descending FlightAware UK
Wed 05:43:23 AM 52.1553 5.6516 90° East 476 548 37,500  Level FlightAware UK
Wed 05:43:47 AM 52.1556 5.7466 90° East 476 548 37,500  Level FlightAware UK
Wed 05:44:05 AM 52.1555 5.8171 90° East 476 548 37,500 3,600 Level FlightAware UK
Wed 05:44:12 AM 52.1570 5.8270 90° East 521 600 39,000 1,731 Climbing FlightAware ADS-B
Wed 05:44:57 AM 52.1560 5.9990 90° East 521 600 39,000  Level FlightAware ADS-B
Wed 05:45:32 AM 52.1560 6.1360 90° East 521 600 39,000  Level FlightAware ADS-B
Wed 05:46:17 AM 52.1550 6.3220 90° East 520 598 39,000  Level FlightAware ADS-B
Wed 05:47:02 AM 52.1540 6.4950 90° East 519 597 39,000  Level FlightAware ADS-B
Wed 05:47:37 AM 52.1530 6.6270 91° East 519 597 39,000  Level FlightAware ADS-B
Wed 05:48:22 AM 52.1510 6.7960 91° East 518 596 39,000  Level FlightAware ADS-B
Wed 05:49:07 AM 52.1490 6.9850 91° East 518 596 39,000  Level FlightAware ADS-B
Wed 05:49:47 AM 52.1470 7.1410 91° East 518 596 39,000  Level FlightAware ADS-B
Wed 05:50:32 AM 52.1450 7.3120 91° East 516 594 39,000  Level FlightAware ADS-B
Wed 05:51:12 AM 52.1430 7.4590 91° East 517 595 39,000  Level FlightAware ADS-B
Wed 05:51:57 AM 52.1400 7.6370 92° East 516 594 39,000  Level FlightAware ADS-B
Wed 05:52:37 AM 52.1370 7.7850 92° East 515 593 39,000  Level FlightAware ADS-B
Wed 05:53:17 AM 52.1340 7.9530 92° East 514 592 39,000  Level FlightAware ADS-B
Wed 05:54:02 AM 52.1300 8.1250 92° East 514 592 39,000  Level FlightAware ADS-B
Wed 05:54:42 AM 52.1270 8.2850 92° East 514 592 39,000  Level FlightAware ADS-B
Wed 05:55:22 AM 52.1230 8.4300 93° East 514 592 39,000  Level FlightAware ADS-B
Wed 05:56:07 AM 52.1190 8.6110 92° East 514 592 39,000  Level FlightAware ADS-B
Wed 05:56:47 AM 52.1150 8.7640 92° East 514 592 39,000  Level FlightAware ADS-B
Wed 05:57:32 AM 52.1100 8.9340 93° East 513 590 39,000  Level FlightAware ADS-B
Wed 05:58:12 AM 52.1060 9.0890 92° East 512 589 39,000  Level FlightAware ADS-B
Wed 05:58:52 AM 52.1020 9.2330 93° East 513 590 39,000  Level FlightAware ADS-B
Wed 05:59:37 AM 52.0960 9.4120 93° East 513 590 39,000  Level FlightAware ADS-B
Wed 06:00:17 AM 52.0910 9.5690 93° East 514 592 39,000  Level FlightAware ADS-B
Wed 06:01:02 AM 52.0850 9.7440 93° East 513 590 39,000  Level FlightAware ADS-B
Wed 06:01:42 AM 52.0800 9.8850 93° East 512 589 39,000  Level FlightAware ADS-B
Wed 06:02:22 AM 52.0740 10.0500 93° East 511 588 39,000  Level FlightAware ADS-B
Wed 06:03:07 AM 52.0680 10.1980 94° East 511 588 39,000  Level FlightAware ADS-B
Wed 06:03:47 AM 52.0610 10.3730 94° East 512 589 39,000  Level FlightAware ADS-B
Wed 06:04:27 AM 52.0550 10.5270 94° East 513 590 39,000  Level FlightAware ADS-B
Wed 06:05:12 AM 52.0480 10.6940 94° East 512 589 39,000  Level FlightAware ADS-B
Wed 06:05:52 AM 52.0410 10.8550 94° East 510 587 39,000  Level FlightAware ADS-B
Wed 06:06:37 AM 52.0330 11.0140 95° East 510 587 39,000  Level FlightAware ADS-B
Wed 06:07:17 AM 52.0260 11.1770 94° East 509 586 39,000  Level FlightAware ADS-B
Wed 06:08:02 AM 52.0180 11.3490 94° East 510 587 39,000  Level FlightAware ADS-B
Wed 06:08:47 AM 52.0090 11.5170 95° East 511 588 39,000  Level FlightAware ADS-B
Wed 06:09:27 AM 52.0010 11.6700 95° East 511 588 39,000  Level FlightAware ADS-B
Wed 06:10:07 AM 51.9890 11.8220 97° East 515 593 39,000  Level FlightAware ADS-B
Wed 06:10:52 AM 51.9630 11.9880 104° East 520 598 39,000  Level FlightAware ADS-B
Wed 06:11:32 AM 51.9350 12.1440 106° East 520 598 39,000  Level FlightAware ADS-B
Wed 06:12:17 AM 51.9060 12.3090 106° East 519 597 39,000  Level FlightAware ADS-B
Wed 06:12:57 AM 51.8800 12.4570 106° East 520 598 39,000  Level FlightAware ADS-B
Wed 06:13:37 AM 51.8540 12.6070 106° East 518 596 39,000  Level FlightAware ADS-B
Wed 06:14:22 AM 51.8240 12.7710 106° East 518 596 39,000  Level FlightAware ADS-B
Wed 06:15:02 AM 51.7980 12.9180 106° East 518 596 39,000  Level FlightAware ADS-B
Wed 06:15:42 AM 51.7700 13.0700 107° East 519 597 39,000  Level FlightAware ADS-B
Wed 06:16:27 AM 51.7390 13.2380 107° East 519 597 39,000  Level FlightAware ADS-B
Wed 06:17:07 AM 51.7120 13.3820 107° East 518 596 39,000  Level FlightAware ADS-B
Wed 06:17:52 AM 51.6800 13.5500 107° East 519 597 39,000  Level FlightAware ADS-B
Wed 06:18:32 AM 51.6510 13.7000 107° East 520 598 39,000  Level FlightAware ADS-B
Wed 06:19:17 AM 51.6190 13.8670 107° East 522 601 39,000  Level FlightAware ADS-B
Wed 06:19:57 AM 51.5920 14.0080 107° East 523 602 39,000  Level FlightAware ADS-B
Wed 06:20:37 AM 51.5630 14.1580 107° East 525 604 39,000  Level FlightAware ADS-B
Wed 06:21:22 AM 51.5290 14.3260 108° East 526 605 39,000  Level FlightAware ADS-B
Wed 06:22:02 AM 51.5000 14.4750 107° East 527 606 39,000  Level FlightAware ADS-B
Wed 06:22:42 AM 51.4700 14.6230 108° East 527 606 39,000  Level FlightAware ADS-B
Wed 06:23:27 AM 51.4370 14.7880 108° East 527 606 39,000  Level FlightAware ADS-B
Wed 06:24:12 AM 51.4020 14.9590 108° East 526 605 39,000  Level FlightAware ADS-B
Wed 06:24:52 AM 51.3740 15.0960 108° East 528 608 39,000  Level FlightAware ADS-B
Wed 06:25:32 AM 51.3430 15.2470 108° East 527 606 39,000  Level FlightAware ADS-B
Wed 06:26:17 AM 51.3060 15.4210 109° East 528 608 39,000  Level FlightAware ADS-B
Wed 06:26:52 AM 51.2810 15.5410 108° East 527 606 39,000  Level FlightAware ADS-B
Wed 06:27:32 AM 51.2490 15.6930 109° East 526 605 39,000  Level FlightAware ADS-B
Wed 06:28:22 AM 51.2120 15.8680 109° East 526 605 39,000  Level FlightAware ADS-B
Wed 06:29:02 AM 51.1800 16.0160 109° East 524 603 39,000  Level FlightAware ADS-B
Wed 06:29:47 AM 51.1430 16.1870 109° East 523 602 39,000  Level FlightAware ADS-B
Wed 06:30:27 AM 51.1120 16.3290 109° East 522 601 39,000  Level FlightAware ADS-B
Wed 06:31:07 AM 51.0800 16.4730 109° East 518 596 39,000  Level FlightAware ADS-B
Wed 06:31:52 AM 51.0430 16.6410 109° East 519 597 39,000  Level FlightAware ADS-B
Wed 06:32:32 AM 51.0110 16.7840 110° East 519 597 39,000  Level FlightAware ADS-B
Wed 06:33:12 AM 50.9790 16.9280 109° East 521 600 39,000  Level FlightAware ADS-B
Wed 06:33:57 AM 50.9430 17.0840 110° East 520 598 39,000  Level FlightAware ADS-B
Wed 06:34:37 AM 50.9110 17.2270 109° East 519 597 39,000  Level FlightAware ADS-B
Wed 06:35:22 AM 50.8770 17.3750 110° East 518 596 39,000  Level FlightAware ADS-B
Wed 06:36:02 AM 50.8420 17.5260 110° East 517 595 39,000  Level FlightAware ADS-B
Wed 06:36:47 AM 50.8050 17.6860 110° East 516 594 39,000  Level FlightAware ADS-B
Wed 06:37:27 AM 50.7710 17.8300 110° East 516 594 39,000  Level FlightAware ADS-B
Wed 06:38:07 AM 50.7380 17.9700 110° East 516 594 39,000  Level FlightAware ADS-B
Wed 06:38:52 AM 50.7000 18.1300 111° Southeast 517 595 39,000  Level FlightAware ADS-B
Wed 06:39:32 AM 50.6660 18.2710 111° Southeast 516 594 39,000  Level FlightAware ADS-B
Wed 06:40:12 AM 50.6330 18.4080 111° Southeast 517 595 39,000  Level FlightAware ADS-B
Wed 06:40:57 AM 50.5940 18.5710 111° Southeast 518 596 39,000  Level FlightAware ADS-B
Wed 06:41:37 AM 50.5590 18.7120 111° Southeast 516 594 39,000  Level FlightAware ADS-B
Wed 06:42:22 AM 50.5220 18.8660 111° Southeast 516 594 39,000  Level FlightAware ADS-B
Wed 06:43:02 AM 50.4870 19.0050 112° Southeast 514 592 39,000  Level FlightAware ADS-B
Wed 06:43:47 AM 50.4470 19.1640 112° Southeast 513 590 39,000  Level FlightAware ADS-B
Wed 06:44:27 AM 50.4130 19.3020 111° Southeast 512 589 39,000  Level FlightAware ADS-B
Wed 06:45:07 AM 50.3780 19.4400 112° Southeast 510 587 39,000  Level FlightAware ADS-B
Wed 06:45:52 AM 50.3390 19.5940 112° Southeast 511 588 39,000  Level FlightAware ADS-B
Wed 06:46:32 AM 50.3060 19.7240 112° Southeast 511 588 39,000  Level FlightAware ADS-B
Wed 06:47:17 AM 50.2650 19.8810 112° Southeast 511 588 39,000  Level FlightAware ADS-B
Wed 06:47:57 AM 50.2300 20.0190 112° Southeast 510 587 39,000  Level FlightAware ADS-B
Wed 06:48:37 AM 50.1940 20.1550 112° Southeast 509 586 39,000  Level FlightAware ADS-B
Wed 06:49:22 AM 50.1550 20.3050 112° Southeast 509 586 39,000  Level FlightAware ADS-B
Wed 06:50:02 AM 50.1190 20.4420 112° Southeast 509 586 39,000  Level FlightAware ADS-B
Wed 06:50:47 AM 50.0790 20.5930 112° Southeast 508 585 39,000  Level FlightAware ADS-B
Wed 06:51:27 AM 50.0430 20.7290 112° Southeast 507 583 39,000  Level FlightAware ADS-B
Wed 06:52:12 AM 50.0030 20.8760 113° Southeast 506 582 39,000  Level FlightAware ADS-B
Wed 06:52:52 AM 49.9670 21.0110 112° Southeast 504 580 39,000  Level FlightAware ADS-B
Wed 06:53:32 AM 49.9310 21.1430 113° Southeast 502 578 39,000  Level FlightAware ADS-B
Wed 06:54:17 AM 49.8890 21.2950 113° Southeast 501 577 39,000  Level FlightAware ADS-B
Wed 06:54:57 AM 49.8530 21.4270 113° Southeast 502 578 39,000  Level FlightAware ADS-B
Wed 06:55:42 AM 49.8120 21.5740 113° Southeast 501 577 39,000  Level FlightAware ADS-B
Wed 06:56:22 AM 49.7760 21.7060 113° Southeast 501 577 39,000  Level FlightAware ADS-B
Wed 06:57:02 AM 49.7400 21.8330 114° Southeast 501 577 39,000  Level FlightAware ADS-B
Wed 06:57:47 AM 49.6970 21.9870 113° Southeast 500 575 39,000  Level FlightAware ADS-B
Wed 06:58:27 AM 49.6600 22.1150 114° Southeast 501 577 39,000  Level FlightAware ADS-B
Wed 06:59:07 AM 49.6240 22.2440 113° Southeast 503 579 39,000  Level FlightAware ADS-B
Wed 06:59:52 AM 49.5820 22.3900 114° Southeast 505 581 39,000  Level FlightAware ADS-B
Wed 07:00:32 AM 49.5460 22.5150 114° Southeast 502 578 39,000  Level FlightAware ADS-B
Wed 07:01:22 AM 49.4970 22.6810 114° Southeast 498 573 39,000  Level FlightAware ADS-B
Wed 07:01:47 AM 49.4720 22.7700 113° Southeast 503 579 39,000  Level FlightAware ADS-B
Wed 07:02:32 AM 49.4340 22.9150 112° Southeast 504 580 39,000  Level FlightAware ADS-B
Wed 07:03:12 AM 49.4010 23.0500 111° Southeast 505 581 39,000  Level FlightAware ADS-B
Wed 07:03:57 AM 49.3630 23.2050 111° Southeast 506 582 39,000  Level FlightAware ADS-B
Wed 07:04:32 AM 49.3350 23.3200 110° East 507 583 39,000  Level FlightAware ADS-B
Wed 07:05:22 AM 49.2950 23.4860 110° East 506 582 39,000  Level FlightAware ADS-B
Wed 07:06:02 AM 49.2630 23.6190 110° East 506 582 39,000  Level FlightAware ADS-B
Wed 07:06:37 AM 49.2340 23.7350 111° Southeast 507 583 39,000  Level FlightAware ADS-B
Wed 07:07:27 AM 49.1910 23.9080 111° Southeast 507 583 39,000  Level FlightAware ADS-B
Wed 07:08:07 AM 49.1580 24.0400 111° Southeast 506 582 39,000  Level FlightAware ADS-B
Wed 07:08:47 AM 49.1240 24.1740 111° Southeast 507 583 39,000  Level FlightAware ADS-B
Wed 07:09:32 AM 49.0880 24.3130 112° Southeast 506 582 39,000  Level FlightAware ADS-B
Wed 07:10:07 AM 49.0560 24.4380 111° Southeast 506 582 39,000  Level FlightAware ADS-B
Wed 07:10:57 AM 49.0160 24.5960 111° Southeast 506 582 39,000  Level FlightAware ADS-B
Wed 07:11:42 AM 48.9830 24.7240 111° Southeast 505 581 39,000  Level FlightAware ADS-B
Wed 07:12:32 AM 48.9320 24.9170 112° Southeast 505 581 39,000  Level FlightAware ADS-B
Wed 07:13:17 AM 48.8940 25.0630 112° Southeast 504 580 39,000  Level FlightAware ADS-B
Wed 07:14:12 AM 48.8490 25.2330 112° Southeast 506 582 39,000  Level FlightAware ADS-B
Wed 07:14:57 AM 48.8160 25.3570 112° Southeast 504 580 39,000  Level FlightAware ADS-B
Wed 07:15:37 AM 48.7770 25.5020 112° Southeast 502 578 39,000  Level FlightAware ADS-B
Wed 07:16:17 AM 48.7410 25.6350 112° Southeast 502 578 39,000  Level FlightAware ADS-B
Wed 07:17:02 AM 48.7000 25.7870 112° Southeast 502 578 39,000  Level FlightAware ADS-B
Wed 07:17:37 AM 48.6720 25.8910 112° Southeast 503 579 39,000  Level FlightAware ADS-B
Wed 07:18:27 AM 48.6280 26.0500 113° Southeast 502 578 39,000  Level FlightAware ADS-B
Wed 07:19:07 AM 48.6000 26.1560 112° Southeast 501 577 39,000  Level FlightAware ADS-B
Wed 07:19:47 AM 48.5700 26.2660 112° Southeast 501 577 39,000  Level FlightAware ADS-B
Wed 07:20:27 AM 48.5400 26.3770 112° Southeast 501 577 39,000  Level FlightAware ADS-B
Wed 07:21:07 AM 48.5110 26.4870 112° Southeast 501 577 39,000  Level FlightAware ADS-B
Wed 07:21:57 AM 48.4740 26.6250 112° Southeast 501 577 39,000  Level FlightAware ADS-B
Wed 07:22:37 AM 48.3770 26.8680 121° Southeast 506 582 39,000  Level FlightAware ADS-B
Wed 07:23:17 AM 48.3110 26.9660 135° Southeast 506 582 39,000  Level FlightAware ADS-B
Wed 07:24:02 AM 48.2400 27.0680 136° Southeast 506 582 39,000  Level FlightAware ADS-B
Wed 07:24:42 AM 48.1690 27.1710 136° Southeast 504 580 39,000  Level FlightAware ADS-B
Wed 07:25:22 AM 48.1080 27.2580 136° Southeast 504 580 39,000  Level FlightAware ADS-B
Wed 07:26:02 AM 48.0510 27.3410 136° Southeast 504 580 39,000  Level FlightAware ADS-B
Wed 07:26:42 AM 47.9940 27.4230 136° Southeast 504 580 39,000  Level FlightAware ADS-B
Wed 07:28:12 AM 47.8290 27.6570 136° Southeast 502 578 39,000  Level FlightAware ADS-B
Wed 07:28:52 AM 47.7650 27.7480 136° Southeast 502 578 39,000  Level FlightAware ADS-B
Wed 07:29:27 AM 47.6930 27.8490 137° Southeast 505 581 39,000  Level FlightAware ADS-B
Wed 07:30:12 AM 47.6270 27.9430 136° Southeast 505 581 39,000  Level FlightAware ADS-B
Wed 07:30:52 AM 47.5700 28.0250 136° Southeast 505 581 39,000  Level FlightAware ADS-B
Wed 07:31:32 AM 47.4810 28.1450 138° Southeast 507 583 39,000  Level FlightAware ADS-B
Wed 07:32:17 AM 47.4170 28.2340 137° Southeast 507 583 39,000  Level FlightAware ADS-B
Wed 07:33:02 AM 47.3280 28.3570 137° Southeast 506 582 39,000  Level FlightAware ADS-B
Wed 07:33:47 AM 47.2560 28.4560 137° Southeast 502 578 39,000  Level FlightAware ADS-B
Wed 07:34:32 AM 47.1820 28.5570 137° Southeast 500 575 39,000  Level FlightAware ADS-B
Wed 07:35:27 AM 47.0840 28.6900 137° Southeast 499 574 39,000  Level FlightAware ADS-B
Wed 07:36:02 AM 47.0310 28.7620 137° Southeast 499 574 39,000  Level FlightAware ADS-B
Wed 07:37:07 AM 46.9150 28.9200 137° Southeast 496 571 39,000  Level FlightAware ADS-B
Wed 07:37:47 AM 46.8470 29.0160 136° Southeast 497 572 39,000  Level FlightAware ADS-B
Wed 07:38:42 AM 46.7630 29.1360 136° Southeast 496 571 39,000  Level FlightAware ADS-B
Wed 07:39:22 AM 46.6960 29.2300 136° Southeast 497 572 39,000  Level FlightAware ADS-B
Wed 07:40:07 AM 46.6270 29.3260 136° Southeast 497 572 39,000  Level FlightAware ADS-B
Wed 07:40:47 AM 46.5570 29.4230 136° Southeast 498 573 39,000  Level FlightAware ADS-B
Wed 07:41:47 AM 46.4550 29.5660 136° Southeast 495 570 39,000  Level FlightAware ADS-B
Wed 07:42:22 AM 46.4020 29.6380 137° Southeast 493 567 39,000  Level FlightAware ADS-B
Wed 07:43:07 AM 46.3220 29.7470 137° Southeast 491 565 39,000  Level FlightAware ADS-B
Wed 07:43:52 AM 46.2510 29.8400 138° Southeast 489 563 39,000  Level FlightAware ADS-B
Wed 07:44:32 AM 46.1760 29.9380 138° Southeast 487 560 39,000  Level FlightAware ADS-B
Wed 07:45:17 AM 46.0980 30.0400 138° Southeast 484 557 39,000  Level FlightAware ADS-B
Wed 07:45:57 AM 46.0320 30.1260 138° Southeast 484 557 39,000  Level FlightAware ADS-B
Wed 07:46:37 AM 45.9650 30.2130 138° Southeast 484 557 39,000  Level FlightAware ADS-B
Wed 07:47:22 AM 45.8930 30.3060 138° Southeast 485 558 39,000  Level FlightAware ADS-B
Wed 07:48:02 AM 45.8340 30.3830 138° Southeast 486 559 39,000  Level FlightAware ADS-B
Wed 07:48:42 AM 45.7570 30.4810 138° Southeast 483 556 39,000  Level FlightAware ADS-B
Wed 07:49:27 AM 45.6830 30.5750 138° Southeast 483 556 39,000  Level FlightAware ADS-B
Wed 07:50:07 AM 45.6160 30.6610 138° Southeast 482 555 39,000  Level FlightAware ADS-B
Wed 07:50:52 AM 45.5410 30.7560 138° Southeast 483 556 39,000  Level FlightAware ADS-B
Wed 07:51:32 AM 45.4810 30.8310 139° Southeast 483 556 39,000  Level FlightAware ADS-B
Wed 07:52:12 AM 45.4080 30.9240 138° Southeast 483 556 39,000  Level FlightAware ADS-B
Wed 07:52:57 AM 45.3330 31.0180 139° Southeast 481 554 39,000  Level FlightAware ADS-B
Wed 07:53:37 AM 45.2650 31.1030 139° Southeast 483 556 39,000  Level FlightAware ADS-B
Wed 07:54:17 AM 45.1990 31.1880 138° Southeast 482 555 39,000  Level FlightAware ADS-B
Wed 07:55:02 AM 45.1250 31.2840 138° Southeast 482 555 39,000  Level FlightAware ADS-B
Wed 07:55:42 AM 45.0600 31.3680 138° Southeast 484 557 39,000  Level FlightAware ADS-B
Wed 07:56:27 AM 44.9870 31.4600 138° Southeast 485 558 39,000  Level FlightAware ADS-B
Wed 07:57:02 AM 44.9260 31.5370 138° Southeast 485 558 39,000  Level FlightAware ADS-B
Wed 07:57:42 AM 44.8600 31.6220 138° Southeast 486 559 39,000  Level FlightAware ADS-B
Wed 07:58:27 AM 44.7850 31.7160 138° Southeast 487 560 39,000  Level FlightAware ADS-B
Wed 07:59:07 AM 44.7210 31.7970 138° Southeast 487 560 39,000  Level FlightAware ADS-B
Wed 07:59:52 AM 44.6420 31.8960 138° Southeast 488 562 39,000  Level FlightAware ADS-B
Wed 08:00:32 AM 44.5750 31.9800 138° Southeast 488 562 39,000  Level FlightAware ADS-B
Wed 08:01:12 AM 44.5070 32.0640 139° Southeast 489 563 39,000  Level FlightAware ADS-B
Wed 08:01:57 AM 44.4330 32.1520 140° Southeast 489 563 39,000  Level FlightAware ADS-B
Wed 08:02:37 AM 44.3610 32.2360 140° Southeast 488 562 39,000  Level FlightAware ADS-B
Wed 08:03:17 AM 44.2910 32.3190 140° Southeast 488 562 39,000  Level FlightAware ADS-B
Wed 08:04:02 AM 44.2150 32.4080 140° Southeast 489 563 39,000  Level FlightAware ADS-B
Wed 08:04:42 AM 44.1450 32.4910 140° Southeast 493 567 39,000  Level FlightAware ADS-B
Wed 08:05:27 AM 44.0670 32.5850 139° Southeast 495 570 39,000  Level FlightAware ADS-B
Wed 08:06:07 AM 43.9980 32.6690 139° Southeast 496 571 39,000  Level FlightAware ADS-B
Wed 08:06:47 AM 43.9290 32.7520 139° Southeast 499 574 39,000  Level FlightAware ADS-B
Wed 08:07:32 AM 43.8490 32.8470 139° Southeast 502 578 39,000  Level FlightAware ADS-B
Wed 08:08:12 AM 43.7810 32.9280 139° Southeast 502 578 39,000  Level FlightAware ADS-B
Wed 08:08:57 AM 43.7020 33.0220 139° Southeast 502 578 39,000  Level FlightAware ADS-B
Wed 08:09:37 AM 43.6300 33.1070 139° Southeast 502 578 39,000  Level FlightAware ADS-B
Wed 08:10:17 AM 43.5600 33.1900 139° Southeast 503 579 39,000  Level FlightAware ADS-B
Wed 08:11:02 AM 43.4820 33.2810 140° Southeast 504 580 39,000  Level FlightAware ADS-B
Wed 08:11:42 AM 43.4080 33.3670 140° Southeast 503 579 39,000  Level FlightAware ADS-B
Wed 08:12:27 AM 43.3280 33.4600 140° Southeast 504 580 39,000  Level FlightAware ADS-B
Wed 08:13:07 AM 43.2570 33.5420 140° Southeast 503 579 39,000  Level FlightAware ADS-B
Wed 08:13:52 AM 43.1770 33.6350 140° Southeast 502 578 39,000  Level FlightAware ADS-B
Wed 08:14:32 AM 43.1060 33.7170 140° Southeast 503 579 39,000  Level FlightAware ADS-B
Wed 08:15:12 AM 43.0360 33.7970 140° Southeast 502 578 39,000  Level FlightAware ADS-B
Wed 08:15:57 AM 42.9630 33.8810 140° Southeast 504 580 39,000  Level FlightAware ADS-B
Wed 08:16:32 AM 42.8990 33.9530 140° Southeast 504 580 39,000  Level FlightAware ADS-B
Wed 08:17:17 AM 42.8120 34.0520 140° Southeast 506 582 39,000  Level FlightAware ADS-B
Wed 08:18:02 AM 42.7410 34.1360 139° Southeast 506 582 39,000  Level FlightAware ADS-B
Wed 08:18:42 AM 42.6810 34.2070 139° Southeast 506 582 39,000  Level FlightAware ADS-B
Wed 08:19:22 AM 42.6210 34.2780 139° Southeast 506 582 39,000  Level FlightAware ADS-B
Wed 08:20:02 AM 42.5610 34.3490 139° Southeast 506 582 39,000  Level FlightAware ADS-B
Wed 08:20:52 AM 42.4860 34.4380 139° Southeast 506 582 39,000  Level FlightAware ADS-B
Wed 08:21:32 AM 42.4260 34.5080 139° Southeast 506 582 39,000  Level FlightAware ADS-B
Wed 08:22:12 AM 42.3660 34.5790 139° Southeast 506 582 39,000  Level FlightAware ADS-B
Wed 08:22:52 AM 42.3060 34.6500 139° Southeast 506 582 39,000  Level FlightAware ADS-B
Wed 08:23:47 AM 42.1620 34.8980 128° Southeast 504 580 39,000  Level FlightAware ADS-B
Wed 08:24:32 AM 42.0850 34.9970 136° Southeast 504 580 39,000  Level FlightAware ADS-B
Wed 08:25:17 AM 42.0160 35.0860 136° Southeast 505 581 39,000  Level FlightAware ADS-B
Wed 08:25:57 AM 41.9590 35.1600 136° Southeast 505 581 39,000  Level FlightAware ADS-B
Wed 08:26:37 AM 41.9020 35.2340 136° Southeast 505 581 39,000  Level FlightAware ADS-B
Wed 08:27:17 AM 41.8450 35.3080 136° Southeast 505 581 39,000  Level FlightAware ADS-B
Wed 08:27:57 AM 41.7880 35.3820 136° Southeast 505 581 39,000  Level FlightAware ADS-B
Wed 08:28:47 AM 41.7160 35.4750 136° Southeast 505 581 39,000  Level FlightAware ADS-B
Wed 08:29:27 AM 41.6590 35.5490 136° Southeast 505 581 39,000  Level FlightAware ADS-B
Wed 08:30:07 AM 41.6020 35.6220 136° Southeast 505 581 39,000  Level FlightAware ADS-B
Wed 08:30:47 AM 41.5450 35.6960 136° Southeast 505 581 39,000  Level FlightAware ADS-B
Wed 08:31:17 AM 41.5020 35.7510 136° Southeast 505 581 39,000  Level FlightAware ADS-B
Wed 08:31:57 AM 41.4450 35.8250 136° Southeast 505 581 39,000  Level FlightAware ADS-B
Wed 08:32:37 AM 41.3880 35.8990 136° Southeast 505 581 39,000  Level FlightAware ADS-B
Wed 08:33:27 AM 41.3160 35.9910 136° Southeast 505 581 39,000  Level FlightAware ADS-B
Wed 08:34:07 AM 41.2590 36.0640 136° Southeast 505 581 39,000  Level FlightAware ADS-B
Wed 08:34:42 AM 41.2840 36.5140 86° East 39,000  Level FlightAware ADS-B
Wed 08:37:00 AM 41.0922 36.7909 133° Southeast  Level Estimated
Wed 08:38:00 AM 41.0086 36.9107 133° Southeast  Level Estimated
Wed 08:39:00 AM 40.9249 37.0303 133° Southeast  Level Estimated
Wed 08:40:00 AM 40.8411 37.1496 133° Southeast  Level Estimated
Wed 08:41:00 AM 40.7571 37.2685 133° Southeast  Level Estimated
Wed 08:42:00 AM 40.6730 37.3872 133° Southeast  Level Estimated
Wed 08:43:00 AM 40.5888 37.5056 133° Southeast  Level Estimated
Wed 08:44:00 AM 40.5045 37.6236 133° Southeast  Level Estimated
Wed 08:45:00 AM 40.4201 37.7414 133° Southeast  Level Estimated
Wed 08:46:00 AM 40.3355 37.8589 133° Southeast  Level Estimated
Wed 08:47:00 AM 40.2508 37.9761 133° Southeast  Level Estimated
Wed 08:48:00 AM 40.1660 38.0929 133° Southeast  Level Estimated
Wed 08:49:00 AM 40.0811 38.2095 134° Southeast  Level Estimated
Wed 08:50:00 AM 39.9961 38.3258 134° Southeast  Level Estimated
Wed 08:51:00 AM 39.9109 38.4419 134° Southeast  Level Estimated
Wed 08:52:00 AM 39.8257 38.5576 134° Southeast  Level Estimated
Wed 08:53:00 AM 39.7403 38.6730 134° Southeast  Level Estimated
Wed 08:54:00 AM 39.6548 38.7882 134° Southeast  Level Estimated
Wed 08:55:00 AM 39.5692 38.9030 134° Southeast  Level Estimated
Wed 08:56:00 AM 39.4835 39.0176 134° Southeast  Level Estimated
Wed 08:57:00 AM 39.3977 39.1319 134° Southeast  Level Estimated
Wed 08:58:00 AM 39.3117 39.2460 134° Southeast  Level Estimated
Wed 08:59:00 AM 39.2257 39.3597 134° Southeast  Level Estimated
Wed 09:00:00 AM 39.1395 39.4732 134° Southeast  Level Estimated
Wed 09:01:00 AM 39.0532 39.5863 134° Southeast  Level Estimated
Wed 09:02:00 AM 38.9669 39.6993 135° Southeast  Level Estimated
Wed 09:03:00 AM 38.8804 39.8119 135° Southeast  Level Estimated
Wed 09:04:00 AM 38.7938 39.9243 135° Southeast  Level Estimated
Wed 09:05:00 AM 38.7071 40.0363 135° Southeast  Level Estimated
Wed 09:06:00 AM 38.6202 40.1482 135° Southeast  Level Estimated
Wed 09:07:00 AM 38.5333 40.2597 135° Southeast  Level Estimated
Wed 09:08:00 AM 38.4463 40.3710 135° Southeast  Level Estimated
Wed 09:09:00 AM 38.3592 40.4820 135° Southeast  Level Estimated
Wed 09:10:00 AM 38.2719 40.5927 135° Southeast  Level Estimated
Wed 09:10:07 AM 38.2940 41.9230 135° Southeast 526 605 39,000  Level FlightAware ADS-B
Wed 09:10:37 AM 38.2530 41.9940 126° Southeast 524 603 39,000  Level FlightAware ADS-B
Wed 09:11:27 AM 38.1810 42.1160 127° Southeast 522 601 39,000  Level FlightAware ADS-B
Wed 09:12:12 AM 38.1150 42.2280 127° Southeast 518 596 39,000  Level FlightAware ADS-B
Wed 09:12:52 AM 38.0580 42.3260 126° Southeast 516 594 39,000  Level FlightAware ADS-B
Wed 09:13:37 AM 37.9940 42.4340 127° Southeast 516 594 39,000  Level FlightAware ADS-B
Wed 09:14:17 AM 37.9380 42.5270 127° Southeast 515 593 39,000  Level FlightAware ADS-B
Wed 09:14:57 AM 37.8770 42.6290 127° Southeast 514 592 39,000  Level FlightAware ADS-B
Wed 09:15:42 AM 37.8020 42.7230 135° Southeast 513 590 39,000  Level FlightAware ADS-B
Wed 09:16:22 AM 37.7310 42.8020 139° Southeast 513 590 39,000  Level FlightAware ADS-B
Wed 09:17:07 AM 37.6500 42.8900 139° Southeast 512 589 39,000  Level FlightAware ADS-B
Wed 09:17:47 AM 37.5770 42.9700 139° Southeast 514 592 39,000  Level FlightAware ADS-B
Wed 09:18:32 AM 37.4970 43.0570 139° Southeast 515 593 39,000  Level FlightAware ADS-B
Wed 09:19:12 AM 37.4260 43.1350 139° Southeast 516 594 39,000  Level FlightAware ADS-B
Wed 09:19:52 AM 37.3500 43.2090 142° Southeast 512 589 39,000  Level FlightAware ADS-B
Wed 09:20:37 AM 37.2550 43.2700 153° Southeast 508 585 39,000  Level FlightAware ADS-B
Wed 09:21:17 AM 37.1690 43.3190 156° South 508 585 39,000  Level FlightAware ADS-B
Wed 09:21:57 AM 37.0840 43.3670 156° South 511 588 39,000  Level FlightAware ADS-B
Wed 09:22:42 AM 36.9890 43.4210 156° South 510 587 39,000  Level FlightAware ADS-B
Wed 09:23:22 AM 36.9030 43.4690 156° South 509 586 39,000  Level FlightAware ADS-B
Wed 09:24:02 AM 36.8160 43.5170 156° South 510 587 39,000  Level FlightAware ADS-B
Wed 09:24:47 AM 36.7160 43.5720 156° South 511 588 39,000  Level FlightAware ADS-B
Wed 09:25:32 AM 36.6210 43.6220 157° South 512 589 39,000  Level FlightAware ADS-B
Wed 09:26:12 AM 36.5320 43.6680 157° South 514 592 39,000  Level FlightAware ADS-B
Wed 09:26:52 AM 36.4440 43.7130 158° South 515 593 39,000  Level FlightAware ADS-B
Wed 09:27:37 AM 36.3440 43.7650 157° South 515 593 39,000  Level FlightAware ADS-B
Wed 09:28:17 AM 36.2550 43.8110 157° South 516 594 39,000  Level FlightAware ADS-B
Wed 09:29:02 AM 36.1600 43.8610 157° South 516 594 39,000  Level FlightAware ADS-B
Wed 09:29:42 AM 36.0730 43.9070 157° South 514 592 39,000  Level FlightAware ADS-B
Wed 09:30:22 AM 35.9830 43.9540 157° South 510 587 39,000  Level FlightAware ADS-B
Wed 09:31:07 AM 35.8850 44.0050 157° South 507 583 39,000  Level FlightAware ADS-B
Wed 09:31:47 AM 35.7980 44.0510 157° South 509 586 39,000  Level FlightAware ADS-B
Wed 09:32:32 AM 35.7030 44.1000 157° South 510 587 39,000  Level FlightAware ADS-B
Wed 09:33:12 AM 35.6150 44.1460 157° South 511 588 39,000  Level FlightAware ADS-B
Wed 09:33:52 AM 35.5270 44.1910 157° South 512 589 39,000  Level FlightAware ADS-B
Wed 09:34:37 AM 35.4280 44.2420 157° South 514 592 39,000  Level FlightAware ADS-B
Wed 09:35:17 AM 35.3400 44.2880 157° South 515 593 39,000  Level FlightAware ADS-B
Wed 09:36:02 AM 35.2430 44.3360 158° South 514 592 39,000  Level FlightAware ADS-B
Wed 09:36:42 AM 35.1520 44.3780 159° South 512 589 39,000  Level FlightAware ADS-B
Wed 09:37:22 AM 35.0650 44.4170 160° South 513 590 39,000  Level FlightAware ADS-B
Wed 09:38:07 AM 34.9630 44.4640 159° South 512 589 39,000  Level FlightAware ADS-B
Wed 09:38:47 AM 34.8730 44.5050 160° South 512 589 39,000  Level FlightAware ADS-B
Wed 09:39:27 AM 34.7880 44.5440 159° South 514 592 39,000  Level FlightAware ADS-B
Wed 09:40:12 AM 34.6840 44.5920 159° South 515 593 39,000  Level FlightAware ADS-B
Wed 09:40:52 AM 34.5940 44.6330 159° South 517 595 39,000  Level FlightAware ADS-B
Wed 09:41:37 AM 34.4950 44.6780 159° South 518 596 39,000  Level FlightAware ADS-B
Wed 09:42:17 AM 34.4080 44.7200 158° South 519 597 39,000  Level FlightAware ADS-B
Wed 09:43:02 AM 34.3090 44.7700 157° South 519 597 39,000  Level FlightAware ADS-B
Wed 09:43:42 AM 34.2170 44.8150 158° South 520 598 39,000  Level FlightAware ADS-B
Wed 09:44:22 AM 34.1270 44.8590 158° South 519 597 39,000  Level FlightAware ADS-B
Wed 09:45:02 AM 34.0420 44.9010 158° South 518 596 39,000  Level FlightAware ADS-B
Wed 09:45:47 AM 33.9480 44.9460 158° South 517 595 39,000  Level FlightAware ADS-B
Wed 09:46:27 AM 33.8510 44.9930 158° South 515 593 39,000  Level FlightAware ADS-B
Wed 09:47:07 AM 33.7660 45.0340 158° South 513 590 39,000  Level FlightAware ADS-B
Wed 09:47:52 AM 33.6660 45.0820 158° South 509 586 39,000  Level FlightAware ADS-B
Wed 09:48:37 AM 33.5700 45.1260 159° South 508 585 39,000  Level FlightAware ADS-B
Wed 09:49:17 AM 33.4800 45.1670 159° South 509 586 39,000  Level FlightAware ADS-B
Wed 09:49:57 AM 33.3930 45.2070 159° South 509 586 39,000  Level FlightAware ADS-B
Wed 09:50:42 AM 33.2950 45.2520 159° South 510 587 39,000  Level FlightAware ADS-B
Wed 09:51:22 AM 33.2110 45.2930 158° South 511 588 39,000  Level FlightAware ADS-B
Wed 09:52:32 AM 33.0570 45.3710 157° South 513 590 39,000  Level FlightAware ADS-B
Wed 09:53:12 AM 32.9820 45.4090 157° South 513 590 39,000  Level FlightAware ADS-B
Wed 09:53:52 AM 32.9080 45.4470 157° South 513 590 39,000  Level FlightAware ADS-B
Wed 09:54:32 AM 32.8340 45.4840 157° South 513 590 39,000  Level FlightAware ADS-B
Wed 09:55:22 AM 32.7410 45.5310 157° South 513 590 39,000  Level FlightAware ADS-B
Wed 09:56:02 AM 32.6670 45.5690 157° South 513 590 39,000  Level FlightAware ADS-B
Wed 09:56:42 AM 32.5920 45.6060 157° South 513 590 39,000  Level FlightAware ADS-B
Wed 09:57:22 AM 32.5180 45.6430 157° South 513 590 39,000  Level FlightAware ADS-B
Wed 09:58:02 AM 32.4440 45.6810 157° South 513 590 39,000  Level FlightAware ADS-B
Wed 09:58:52 AM 32.3510 45.7270 157° South 513 590 39,000  Level FlightAware ADS-B
Wed 09:59:32 AM 32.2770 45.7650 157° South 513 590 39,000  Level FlightAware ADS-B
Wed 10:00:12 AM 32.2020 45.8020 157° South 513 590 39,000  Level FlightAware ADS-B
Wed 10:01:02 AM 32.1100 45.8490 157° South 513 590 39,000  Level FlightAware ADS-B
Wed 10:01:42 AM 32.0350 45.8860 157° South 513 590 39,000  Level FlightAware ADS-B
Wed 10:04:00 AM 31.8438 46.1322 132° Southeast  Level Estimated
Wed 10:05:00 AM 31.7606 46.2389 133° Southeast  Level Estimated
Wed 10:06:00 AM 31.6772 46.3455 133° Southeast  Level Estimated
Wed 10:07:00 AM 31.5938 46.4518 133° Southeast  Level Estimated
Wed 10:08:00 AM 31.5103 46.5579 133° Southeast  Level Estimated
Wed 10:09:00 AM 31.4266 46.6639 133° Southeast  Level Estimated
Wed 10:10:00 AM 31.3430 46.7697 133° Southeast  Level Estimated
Wed 10:11:00 AM 31.2592 46.8753 133° Southeast  Level Estimated
Wed 10:12:00 AM 31.1753 46.9807 133° Southeast  Level Estimated
Wed 10:13:00 AM 31.0913 47.0859 133° Southeast  Level Estimated
Wed 10:13:37 AM 30.7110 47.6340 133° Southeast 532 612 39,000  Level FlightAware ADS-B
Wed 10:14:17 AM 30.6430 47.7070 137° Southeast 532 612 39,000  Level FlightAware ADS-B
Wed 10:14:57 AM 30.5820 47.7730 137° Southeast 532 612 39,000  Level FlightAware ADS-B
Wed 10:15:37 AM 30.5210 47.8400 137° Southeast 532 612 39,000  Level FlightAware ADS-B
Wed 10:16:37 AM 30.3490 47.9400 153° Southeast 515 593 39,000  Level FlightAware ADS-B
Wed 10:17:22 AM 30.2710 47.9980 147° Southeast 515 593 39,000  Level FlightAware ADS-B
Wed 10:18:02 AM 30.1900 48.0550 149° Southeast 515 593 39,000  Level FlightAware ADS-B
Wed 10:18:42 AM 30.1080 48.1140 148° Southeast 513 590 39,000  Level FlightAware ADS-B
Wed 10:19:22 AM 30.0400 48.1630 148° Southeast 513 590 39,000  Level FlightAware ADS-B
Wed 10:20:22 AM 29.9100 48.2550 148° Southeast 510 587 39,000  Level FlightAware ADS-B
Wed 10:21:07 AM 29.8090 48.3270 148° Southeast 509 586 39,000  Level FlightAware ADS-B
Wed 10:21:47 AM 29.7510 48.3680 148° Southeast 511 588 39,000  Level FlightAware ADS-B
Wed 10:22:27 AM 29.6490 48.4420 148° Southeast 512 589 39,000  Level FlightAware ADS-B
Wed 10:23:12 AM 29.5650 48.5010 149° Southeast 513 590 39,000  Level FlightAware ADS-B
Wed 10:23:47 AM 29.4980 48.5480 149° Southeast 515 593 39,000  Level FlightAware ADS-B
Wed 10:24:32 AM 29.3990 48.6190 148° Southeast 515 593 39,000  Level FlightAware ADS-B
Wed 10:25:12 AM 29.3180 48.6760 148° Southeast 518 596 39,000  Level FlightAware ADS-B
Wed 10:26:07 AM 29.2140 48.7490 149° Southeast 517 595 39,000  Level FlightAware ADS-B
Wed 10:26:47 AM 29.1230 48.8130 148° Southeast 512 589 39,000  Level FlightAware ADS-B
Wed 10:27:32 AM 29.0460 48.8680 148° Southeast 512 589 39,000  Level FlightAware ADS-B
Wed 10:28:27 AM 28.9290 48.9490 149° Southeast 506 582 39,000  Level FlightAware ADS-B
Wed 10:29:12 AM 28.8530 49.0030 148° Southeast 506 582 39,000  Level FlightAware ADS-B
Wed 10:29:57 AM 28.7520 49.0730 149° Southeast 504 580 39,000  Level FlightAware ADS-B
Wed 10:30:32 AM 28.6860 49.1190 149° Southeast 504 580 39,000  Level FlightAware ADS-B
Wed 10:31:32 AM 28.5620 49.2040 149° Southeast 501 577 39,000  Level FlightAware ADS-B
Wed 10:32:27 AM 28.4460 49.2850 148° Southeast 504 580 39,000  Level FlightAware ADS-B
Wed 10:33:12 AM 28.3670 49.3410 148° Southeast 504 580 39,000  Level FlightAware ADS-B
Wed 10:33:52 AM 28.3000 49.3880 148° Southeast 504 580 39,000  Level FlightAware ADS-B
Wed 10:34:27 AM 28.2110 49.4470 150° Southeast 506 582 39,000  Level FlightAware ADS-B
Wed 10:35:12 AM 28.1280 49.5060 148° Southeast 506 582 39,000  Level FlightAware ADS-B
Wed 10:36:02 AM 28.0440 49.5650 148° Southeast 506 582 39,000  Level FlightAware ADS-B
Wed 10:36:42 AM 27.9760 49.6130 148° Southeast 506 582 39,000  Level FlightAware ADS-B
Wed 10:37:22 AM 27.9090 49.6610 148° Southeast 506 582 39,000  Level FlightAware ADS-B
Wed 10:38:02 AM 27.8410 49.7090 148° Southeast 506 582 39,000  Level FlightAware ADS-B
Wed 10:38:42 AM 27.7740 49.7560 148° Southeast 506 582 39,000  Level FlightAware ADS-B
Wed 10:39:32 AM 27.6890 49.8160 148° Southeast 506 582 39,000  Level FlightAware ADS-B
Wed 10:40:12 AM 27.6220 49.8640 148° Southeast 506 582 39,000  Level FlightAware ADS-B
Wed 10:40:52 AM 27.5540 49.9110 148° Southeast 506 582 39,000  Level FlightAware ADS-B
Wed 10:41:32 AM 27.4870 49.9590 148° Southeast 506 582 39,000  Level FlightAware ADS-B
Wed 10:42:12 AM 27.4190 50.0060 148° Southeast 506 582 39,000  Level FlightAware ADS-B
Wed 10:42:52 AM 27.3520 50.0540 148° Southeast 506 582 39,000  Level FlightAware ADS-B
Wed 10:43:42 AM 27.2670 50.1130 148° Southeast 506 582 39,000  Level FlightAware ADS-B
Wed 10:44:22 AM 27.2000 50.1600 148° Southeast 506 582 39,000  Level FlightAware ADS-B
Wed 10:46:00 AM 27.0892 50.3486 123° Southeast  Level Estimated
Wed 10:46:02 AM 26.8650 50.5740 123° Southeast 520 598 39,000  Level FlightAware ADS-B
Wed 10:46:42 AM 26.7890 50.6630 134° Southeast 527 606 39,000  Level FlightAware ADS-B
Wed 10:47:22 AM 26.7210 50.7400 135° Southeast 528 608 39,000  Level FlightAware ADS-B
Wed 10:48:07 AM 26.6430 50.8280 135° Southeast 526 605 39,000  Level FlightAware ADS-B
Wed 10:48:47 AM 26.5750 50.9040 135° Southeast 525 604 39,000  Level FlightAware ADS-B
Wed 10:49:32 AM 26.5010 50.9870 135° Southeast 524 603 39,000  Level FlightAware ADS-B
Wed 10:50:12 AM 26.4310 51.0650 135° Southeast 524 603 39,000  Level FlightAware ADS-B
Wed 10:50:57 AM 26.3580 51.1490 134° Southeast 524 603 39,000  Level FlightAware ADS-B
Wed 10:51:52 AM 26.2590 51.2590 135° Southeast 512 589 39,000  Level FlightAware ADS-B
Wed 10:52:27 AM 26.2020 51.3230 135° Southeast 509 586 39,000  Level FlightAware ADS-B
Wed 10:53:07 AM 26.1420 51.4110 127° Southeast 521 600 39,000  Level FlightAware ADS-B
Wed 10:54:12 AM 26.0720 51.5670 117° Southeast 524 603 39,000  Level FlightAware ADS-B
Wed 10:55:32 AM 25.9890 51.7610 115° Southeast 527 606 39,000  Level FlightAware ADS-B
Wed 10:56:57 AM 25.8890 51.9500 120° Southeast 520 598 39,000  Level FlightAware ADS-B
Wed 10:57:42 AM 25.8250 52.0470 126° Southeast 526 605 39,000  Level FlightAware ADS-B
Wed 10:58:22 AM 25.7680 52.1340 126° Southeast 524 603 39,000  Level FlightAware ADS-B
Wed 10:59:02 AM 25.7100 52.2230 126° Southeast 525 604 39,000 -1,059 Level FlightAware ADS-B
Wed 10:59:47 AM 25.6440 52.3250 126° Southeast 525 604 37,500 -2,188 Descending FlightAware ADS-B
Wed 11:00:27 AM 25.5940 52.4010 126° Southeast 526 605 35,900 -2,753 Descending FlightAware ADS-B
Wed 11:01:12 AM 25.5220 52.5110 126° Southeast 527 606 33,600 -2,700 Descending FlightAware ADS-B
Wed 11:02:07 AM 25.4450 52.6280 126° Southeast 514 592 31,400 -2,274 Descending FlightAware ADS-B
Wed 11:02:47 AM 25.3910 52.7120 125° Southeast 501 577 30,000 -2,025 Descending FlightAware ADS-B
Wed 11:03:27 AM 25.3440 52.7960 122° Southeast 495 570 28,700 -1,380 Descending FlightAware ADS-B
Wed 11:04:27 AM 25.2860 52.9300 116° Southeast 488 562 27,700 -600 Descending FlightAware ADS-B
Wed 11:05:07 AM 25.2530 53.0070 115° Southeast 488 562 27,700  Level FlightAware ADS-B
Wed 11:05:47 AM 25.2210 53.0840 115° Southeast 488 562 27,700 -1,592 Level FlightAware ADS-B
Wed 11:05:57 AM 25.1900 53.1240 131° Southeast 23,800 -1,660 Descending FlightAware ADS-B
Wed 11:08:00 AM 25.0701 53.3693 118° Southeast  Level Estimated
Wed 11:09:00 AM 25.0114 53.4888 118° Southeast  Level Estimated
Wed 11:10:00 AM 24.9527 53.6082 118° Southeast  Level Estimated
Wed 11:11:00 AM 24.8938 53.7274 119° Southeast  Level Estimated
Wed 11:12:00 AM 24.8349 53.8466 119° Southeast  Level Estimated
Wed 11:13:00 AM 24.7759 53.9656 119° Southeast  Level Estimated
Wed 11:14:00 AM 24.7167 54.0845 119° Southeast  Level Estimated
Wed 11:15:00 AM 24.6575 54.2033 119° Southeast  Level Estimated
Wed 11:16:00 AM 24.5982 54.3220 119° Southeast  Level Estimated
Wed 11:17:00 AM 24.5388 54.4406 119° Southeast  Level Estimated
Wed 11:18:00 AM 24.4793 54.5591 119° Southeast  Level Estimated
Wed 11:19:00 AM 24.4330 54.6511 119° Southeast  Level Estimated
Wed 11:20:00 AM 24.4330 54.6511 318° Northwest  Level Estimated
Wed 11:21:00 AM 24.4330 54.6511 318° Northwest  Level Estimated
Wed 11:21:27 AM 24.4970 54.5610 318° Northwest 163 188 1,700  Level FlightAware ADS-B
Wed 11:21:57 AM 24.4840 54.5800 127° Southeast 142 163 1,300 -764 Descending FlightAware ADS-B
Wed 11:22:22 AM 24.4740 54.5940 128° Southeast 134 154 1,000 -655 Descending FlightAware ADS-B
Wed 11:22:52 AM 24.4620 54.6110 128° Southeast 137 158 700 -667 Descending FlightAware ADS-B
Wed 11:23:07 AM 24.4560 54.6190 129° Southeast 135 155 500 -750 Descending FlightAware ADS-B
Wed 11:23:32 AM 24.4470 54.6310 129° Southeast 136 157 200 -360 Descending FlightAware ADS-B
Wed 11:23:57 AM 24.4380 54.6440 127° Southeast 136 157 200  Level FlightAware ADS-B
Wed 11:26:00 AM 24.4330 54.6511 128° Southeast  Level Estimated

Login

Don't have an account? Register now (free) for customized features, flight alerts, and more!